sensor_id;sensor_type;location;lat;lon;timestamp;pressure;altitude;pressure_sealevel;temperature;humidity
55474;BME280;65220;52.214;0.116;2024-01-10T00:00:52;103089.18;;;15.34;26.18
55474;BME280;65220;52.214;0.116;2024-01-10T00:03:17;103089.44;;;15.54;26.00
55474;BME280;65220;52.214;0.116;2024-01-10T00:05:43;103084.68;;;15.04;26.24
55474;BME280;65220;52.214;0.116;2024-01-10T00:08:08;103085.19;;;14.90;26.33
55474;BME280;65220;52.214;0.116;2024-01-10T00:10:33;103084.38;;;14.98;26.22
55474;BME280;65220;52.214;0.116;2024-01-10T00:12:58;103086.43;;;15.04;26.17
55474;BME280;65220;52.214;0.116;2024-01-10T00:15:23;103082.54;;;15.29;26.16
55474;BME280;65220;52.214;0.116;2024-01-10T00:17:48;103082.24;;;15.10;26.05
55474;BME280;65220;52.214;0.116;2024-01-10T00:20:14;103077.93;;;15.52;25.87
55474;BME280;65220;52.214;0.116;2024-01-10T00:22:39;103080.61;;;15.27;26.01
55474;BME280;65220;52.214;0.116;2024-01-10T00:25:04;103082.31;;;15.10;25.99
55474;BME280;65220;52.214;0.116;2024-01-10T00:27:29;103081.06;;;15.20;25.94
55474;BME280;65220;52.214;0.116;2024-01-10T00:29:54;103075.93;;;14.85;26.04
55474;BME280;65220;52.214;0.116;2024-01-10T00:32:20;103075.93;;;14.76;26.06
55474;BME280;65220;52.214;0.116;2024-01-10T00:34:45;103072.75;;;14.19;26.25
55474;BME280;65220;52.214;0.116;2024-01-10T00:37:10;103068.55;;;14.37;26.23
55474;BME280;65220;52.214;0.116;2024-01-10T00:39:35;103064.84;;;14.54;26.20
55474;BME280;65220;52.214;0.116;2024-01-10T00:42:01;103066.61;;;14.30;26.32
55474;BME280;65220;52.214;0.116;2024-01-10T00:44:26;103061.73;;;14.66;26.18
55474;BME280;65220;52.214;0.116;2024-01-10T00:46:51;103057.39;;;14.48;26.24
55474;BME280;65220;52.214;0.116;2024-01-10T00:49:16;103056.70;;;14.46;26.17
55474;BME280;65220;52.214;0.116;2024-01-10T00:51:41;103050.59;;;14.34;26.23
55474;BME280;65220;52.214;0.116;2024-01-10T00:54:06;103051.31;;;14.58;26.15
55474;BME280;65220;52.214;0.116;2024-01-10T00:56:32;103046.36;;;14.28;26.25
55474;BME280;65220;52.214;0.116;2024-01-10T00:58:57;103046.24;;;14.46;26.11
55474;BME280;65220;52.214;0.116;2024-01-10T01:01:22;103040.60;;;14.66;26.06
55474;BME280;65220;52.214;0.116;2024-01-10T01:03:47;103042.71;;;14.44;26.27
55474;BME280;65220;52.214;0.116;2024-01-10T01:06:12;103041.34;;;14.38;26.16
55474;BME280;65220;52.214;0.116;2024-01-10T01:08:37;103039.87;;;14.07;26.35
55474;BME280;65220;52.214;0.116;2024-01-10T01:11:03;103036.34;;;14.57;26.18
55474;BME280;65220;52.214;0.116;2024-01-10T01:13:28;103032.88;;;13.95;26.47
55474;BME280;65220;52.214;0.116;2024-01-10T01:15:53;103032.25;;;14.16;26.35
55474;BME280;65220;52.214;0.116;2024-01-10T01:18:18;103033.32;;;13.70;26.54
55474;BME280;65220;52.214;0.116;2024-01-10T01:20:43;103035.45;;;13.44;26.53
55474;BME280;65220;52.214;0.116;2024-01-10T01:23:09;103034.79;;;14.28;26.18
55474;BME280;65220;52.214;0.116;2024-01-10T01:25:34;103032.97;;;14.22;26.26
55474;BME280;65220;52.214;0.116;2024-01-10T01:27:59;103032.48;;;13.96;26.27
55474;BME280;65220;52.214;0.116;2024-01-10T01:30:24;103030.81;;;14.39;26.13
55474;BME280;65220;52.214;0.116;2024-01-10T01:32:49;103029.49;;;13.92;26.37
55474;BME280;65220;52.214;0.116;2024-01-10T01:35:15;103029.64;;;14.14;26.29
55474;BME280;65220;52.214;0.116;2024-01-10T01:37:40;103027.58;;;13.92;26.29
55474;BME280;65220;52.214;0.116;2024-01-10T01:40:06;103024.54;;;14.31;26.07
55474;BME280;65220;52.214;0.116;2024-01-10T01:42:30;103022.07;;;13.53;26.51
55474;BME280;65220;52.214;0.116;2024-01-10T01:44:55;103023.28;;;14.19;26.33
55474;BME280;65220;52.214;0.116;2024-01-10T01:47:21;103019.68;;;13.46;26.46
55474;BME280;65220;52.214;0.116;2024-01-10T01:49:46;103020.49;;;14.40;26.09
55474;BME280;65220;52.214;0.116;2024-01-10T01:52:12;103020.24;;;13.43;26.45
55474;BME280;65220;52.214;0.116;2024-01-10T01:54:36;103021.18;;;13.97;26.14
55474;BME280;65220;52.214;0.116;2024-01-10T01:57:01;103018.10;;;13.85;26.45
55474;BME280;65220;52.214;0.116;2024-01-10T01:59:26;103025.56;;;13.73;26.41
55474;BME280;65220;52.214;0.116;2024-01-10T02:01:53;103021.48;;;14.63;26.05
55474;BME280;65220;52.214;0.116;2024-01-10T02:04:17;103020.39;;;14.21;26.11
55474;BME280;65220;52.214;0.116;2024-01-10T02:06:42;103020.10;;;13.91;26.23
55474;BME280;65220;52.214;0.116;2024-01-10T02:09:07;103022.82;;;14.24;26.16
55474;BME280;65220;52.214;0.116;2024-01-10T02:11:32;103020.87;;;14.34;26.15
55474;BME280;65220;52.214;0.116;2024-01-10T02:13:58;103022.35;;;14.15;25.97
55474;BME280;65220;52.214;0.116;2024-01-10T02:16:23;103022.69;;;14.49;25.94
55474;BME280;65220;52.214;0.116;2024-01-10T02:18:48;103024.94;;;14.27;25.93
55474;BME280;65220;52.214;0.116;2024-01-10T02:21:13;103024.78;;;14.60;25.96
55474;BME280;65220;52.214;0.116;2024-01-10T02:23:38;103024.66;;;13.71;26.24
55474;BME280;65220;52.214;0.116;2024-01-10T02:26:04;103029.20;;;14.25;25.95
55474;BME280;65220;52.214;0.116;2024-01-10T02:28:29;103025.94;;;14.48;25.98
55474;BME280;65220;52.214;0.116;2024-01-10T02:30:54;103024.67;;;14.63;25.82
55474;BME280;65220;52.214;0.116;2024-01-10T02:33:19;103027.32;;;14.53;25.92
55474;BME280;65220;52.214;0.116;2024-01-10T02:35:44;103025.64;;;14.75;25.79
55474;BME280;65220;52.214;0.116;2024-01-10T02:38:09;103023.82;;;14.68;25.66
55474;BME280;65220;52.214;0.116;2024-01-10T02:40:34;103020.01;;;14.50;25.79
55474;BME280;65220;52.214;0.116;2024-01-10T02:43:00;103022.85;;;14.46;25.89
55474;BME280;65220;52.214;0.116;2024-01-10T02:45:26;103020.45;;;14.27;25.88
55474;BME280;65220;52.214;0.116;2024-01-10T02:47:51;103018.36;;;14.78;25.65
55474;BME280;65220;52.214;0.116;2024-01-10T02:50:16;103016.41;;;14.67;25.74
55474;BME280;65220;52.214;0.116;2024-01-10T02:52:41;103009.90;;;14.80;25.59
55474;BME280;65220;52.214;0.116;2024-01-10T02:55:07;103010.81;;;15.04;25.62
55474;BME280;65220;52.214;0.116;2024-01-10T02:57:32;103009.76;;;14.30;25.83
55474;BME280;65220;52.214;0.116;2024-01-10T02:59:57;103006.34;;;14.52;25.70
55474;BME280;65220;52.214;0.116;2024-01-10T03:02:22;103006.51;;;15.17;25.38
55474;BME280;65220;52.214;0.116;2024-01-10T03:04:47;103005.67;;;14.81;25.49
55474;BME280;65220;52.214;0.116;2024-01-10T03:07:12;103008.19;;;14.68;25.60
55474;BME280;65220;52.214;0.116;2024-01-10T03:09:37;103006.43;;;14.93;25.48
55474;BME280;65220;52.214;0.116;2024-01-10T03:12:03;103006.24;;;15.33;25.26
55474;BME280;65220;52.214;0.116;2024-01-10T03:14:28;103011.62;;;14.40;25.46
55474;BME280;65220;52.214;0.116;2024-01-10T03:16:53;103008.30;;;15.05;25.34
55474;BME280;65220;52.214;0.116;2024-01-10T03:19:18;103009.00;;;15.01;25.36
55474;BME280;65220;52.214;0.116;2024-01-10T03:21:43;103007.35;;;15.32;25.26
55474;BME280;65220;52.214;0.116;2024-01-10T03:24:09;103007.71;;;15.10;25.41
55474;BME280;65220;52.214;0.116;2024-01-10T03:26:34;103009.82;;;15.38;25.29
55474;BME280;65220;52.214;0.116;2024-01-10T03:28:59;103005.15;;;15.31;25.19
55474;BME280;65220;52.214;0.116;2024-01-10T03:31:25;103007.89;;;15.16;25.33
55474;BME280;65220;52.214;0.116;2024-01-10T03:33:49;103009.72;;;15.01;25.35
55474;BME280;65220;52.214;0.116;2024-01-10T03:36:16;103004.79;;;15.17;25.25
55474;BME280;65220;52.214;0.116;2024-01-10T03:38:39;103003.99;;;14.74;25.25
55474;BME280;65220;52.214;0.116;2024-01-10T03:41:05;103007.20;;;15.63;25.04
55474;BME280;65220;52.214;0.116;2024-01-10T03:43:30;103007.17;;;15.58;24.97
55474;BME280;65220;52.214;0.116;2024-01-10T03:45:55;103006.00;;;15.49;25.04
55474;BME280;65220;52.214;0.116;2024-01-10T03:48:20;103003.48;;;15.39;24.98
55474;BME280;65220;52.214;0.116;2024-01-10T03:50:45;103006.16;;;14.97;25.07
55474;BME280;65220;52.214;0.116;2024-01-10T03:53:10;103004.08;;;15.47;25.05
55474;BME280;65220;52.214;0.116;2024-01-10T03:55:36;102998.06;;;15.80;24.92
55474;BME280;65220;52.214;0.116;2024-01-10T03:58:01;102998.04;;;15.61;24.96
55474;BME280;65220;52.214;0.116;2024-01-10T04:00:27;102998.09;;;15.74;24.95
55474;BME280;65220;52.214;0.116;2024-01-10T04:02:52;102997.09;;;15.91;24.99
55474;BME280;65220;52.214;0.116;2024-01-10T04:05:16;102996.41;;;15.77;25.03
55474;BME280;65220;52.214;0.116;2024-01-10T04:07:42;102994.51;;;15.63;25.06
55474;BME280;65220;52.214;0.116;2024-01-10T04:10:07;102996.46;;;15.40;25.11
55474;BME280;65220;52.214;0.116;2024-01-10T04:12:32;102995.87;;;15.65;25.04
55474;BME280;65220;52.214;0.116;2024-01-10T04:14:57;102995.80;;;15.77;25.00
55474;BME280;65220;52.214;0.116;2024-01-10T04:17:22;102995.83;;;15.83;25.07
55474;BME280;65220;52.214;0.116;2024-01-10T04:19:48;102993.48;;;15.67;25.10
55474;BME280;65220;52.214;0.116;2024-01-10T04:22:13;102993.42;;;15.62;25.23
55474;BME280;65220;52.214;0.116;2024-01-10T04:24:38;102991.35;;;15.44;25.15
55474;BME280;65220;52.214;0.116;2024-01-10T04:27:04;102990.34;;;15.61;25.20
55474;BME280;65220;52.214;0.116;2024-01-10T04:29:28;102989.53;;;16.05;25.04
55474;BME280;65220;52.214;0.116;2024-01-10T04:31:54;102985.10;;;15.40;25.33
55474;BME280;65220;52.214;0.116;2024-01-10T04:34:19;102984.05;;;15.69;25.19
55474;BME280;65220;52.214;0.116;2024-01-10T04:36:44;102982.99;;;15.92;25.06
55474;BME280;65220;52.214;0.116;2024-01-10T04:39:09;102979.64;;;15.67;25.28
55474;BME280;65220;52.214;0.116;2024-01-10T04:41:34;102978.80;;;15.70;25.27
55474;BME280;65220;52.214;0.116;2024-01-10T04:44:00;102978.88;;;15.48;25.34
55474;BME280;65220;52.214;0.116;2024-01-10T04:46:25;102976.73;;;15.80;25.15
55474;BME280;65220;52.214;0.116;2024-01-10T04:48:50;102972.71;;;15.91;25.12
55474;BME280;65220;52.214;0.116;2024-01-10T04:51:15;102972.84;;;16.02;25.13
55474;BME280;65220;52.214;0.116;2024-01-10T04:53:40;102972.87;;;15.75;25.28
55474;BME280;65220;52.214;0.116;2024-01-10T04:56:06;102969.49;;;16.05;25.21
55474;BME280;65220;52.214;0.116;2024-01-10T04:58:31;102972.13;;;16.00;25.21
55474;BME280;65220;52.214;0.116;2024-01-10T05:00:56;102973.41;;;15.00;25.45
55474;BME280;65220;52.214;0.116;2024-01-10T05:03:21;102972.55;;;15.33;25.36
55474;BME280;65220;52.214;0.116;2024-01-10T05:05:46;102974.94;;;16.06;25.10
55474;BME280;65220;52.214;0.116;2024-01-10T05:08:12;102976.31;;;15.07;25.46
55474;BME280;65220;52.214;0.116;2024-01-10T05:10:36;102977.44;;;16.01;25.05
55474;BME280;65220;52.214;0.116;2024-01-10T05:13:02;102978.34;;;15.17;25.47
55474;BME280;65220;52.214;0.116;2024-01-10T05:15:27;102978.88;;;15.84;25.16
55474;BME280;65220;52.214;0.116;2024-01-10T05:17:52;102979.70;;;15.39;25.48
55474;BME280;65220;52.214;0.116;2024-01-10T05:20:17;102979.72;;;16.08;25.01
55474;BME280;65220;52.214;0.116;2024-01-10T05:22:43;102976.88;;;15.96;25.03
55474;BME280;65220;52.214;0.116;2024-01-10T05:25:08;102976.33;;;15.73;25.31
55474;BME280;65220;52.214;0.116;2024-01-10T05:27:33;102974.81;;;15.92;25.25
55474;BME280;65220;52.214;0.116;2024-01-10T05:29:58;102977.20;;;15.87;25.17
55474;BME280;65220;52.214;0.116;2024-01-10T05:32:23;102977.94;;;15.70;25.32
55474;BME280;65220;52.214;0.116;2024-01-10T05:34:48;102976.04;;;15.52;25.24
55474;BME280;65220;52.214;0.116;2024-01-10T05:37:13;102977.32;;;15.95;25.10
55474;BME280;65220;52.214;0.116;2024-01-10T05:39:39;102976.45;;;16.31;25.10
55474;BME280;65220;52.214;0.116;2024-01-10T05:42:04;102974.97;;;16.33;25.02
55474;BME280;65220;52.214;0.116;2024-01-10T05:44:29;102974.61;;;15.89;25.05
55474;BME280;65220;52.214;0.116;2024-01-10T05:46:54;102972.88;;;15.87;25.25
55474;BME280;65220;52.214;0.116;2024-01-10T05:49:19;102978.16;;;16.51;25.05
55474;BME280;65220;52.214;0.116;2024-01-10T05:51:45;102977.71;;;15.85;25.06
55474;BME280;65220;52.214;0.116;2024-01-10T05:54:10;102977.21;;;16.10;25.09
55474;BME280;65220;52.214;0.116;2024-01-10T05:56:35;102978.87;;;16.00;25.07
55474;BME280;65220;52.214;0.116;2024-01-10T05:59:00;102977.47;;;15.39;25.39
55474;BME280;65220;52.214;0.116;2024-01-10T06:01:25;102976.98;;;16.08;25.08
55474;BME280;65220;52.214;0.116;2024-01-10T06:03:50;102976.84;;;16.10;25.22
55474;BME280;65220;52.214;0.116;2024-01-10T06:06:16;102976.18;;;15.98;25.11
55474;BME280;65220;52.214;0.116;2024-01-10T06:08:41;102974.28;;;15.89;25.23
55474;BME280;65220;52.214;0.116;2024-01-10T06:11:06;102977.03;;;16.05;25.17
55474;BME280;65220;52.214;0.116;2024-01-10T06:13:31;102977.10;;;15.98;25.06
55474;BME280;65220;52.214;0.116;2024-01-10T06:15:56;102977.46;;;15.97;25.06
55474;BME280;65220;52.214;0.116;2024-01-10T06:18:21;102976.36;;;15.95;25.14
55474;BME280;65220;52.214;0.116;2024-01-10T06:20:47;102978.54;;;15.72;25.23
55474;BME280;65220;52.214;0.116;2024-01-10T06:23:12;102975.46;;;16.31;24.92
55474;BME280;65220;52.214;0.116;2024-01-10T06:25:37;102977.86;;;15.81;25.17
55474;BME280;65220;52.214;0.116;2024-01-10T06:28:04;102977.79;;;16.35;25.07
55474;BME280;65220;52.214;0.116;2024-01-10T06:30:28;102978.17;;;16.21;24.92
55474;BME280;65220;52.214;0.116;2024-01-10T06:32:53;102976.79;;;16.39;24.93
55474;BME280;65220;52.214;0.116;2024-01-10T06:35:18;102976.61;;;16.35;24.92
55474;BME280;65220;52.214;0.116;2024-01-10T06:37:44;102978.89;;;15.96;25.19
55474;BME280;65220;52.214;0.116;2024-01-10T06:40:10;102980.69;;;16.18;24.93
55474;BME280;65220;52.214;0.116;2024-01-10T06:42:34;102978.07;;;16.13;24.94
55474;BME280;65220;52.214;0.116;2024-01-10T06:44:59;102980.19;;;16.14;25.06
55474;BME280;65220;52.214;0.116;2024-01-10T06:47:24;102978.74;;;16.27;25.01
55474;BME280;65220;52.214;0.116;2024-01-10T06:49:49;102982.33;;;16.11;25.02
55474;BME280;65220;52.214;0.116;2024-01-10T06:52:14;102985.34;;;16.43;24.99
55474;BME280;65220;52.214;0.116;2024-01-10T06:54:40;102985.65;;;16.98;24.63
55474;BME280;65220;52.214;0.116;2024-01-10T06:57:05;102991.21;;;16.45;24.89
55474;BME280;65220;52.214;0.116;2024-01-10T06:59:30;102990.42;;;16.17;24.94
55474;BME280;65220;52.214;0.116;2024-01-10T07:01:55;102988.62;;;16.66;24.75
55474;BME280;65220;52.214;0.116;2024-01-10T07:04:20;102988.85;;;15.98;25.07
55474;BME280;65220;52.214;0.116;2024-01-10T07:06:45;102989.99;;;16.55;24.84
55474;BME280;65220;52.214;0.116;2024-01-10T07:09:11;102994.24;;;16.41;24.93
55474;BME280;65220;52.214;0.116;2024-01-10T07:11:36;102995.00;;;16.43;24.98
55474;BME280;65220;52.214;0.116;2024-01-10T07:14:01;102993.55;;;16.42;24.87
55474;BME280;65220;52.214;0.116;2024-01-10T07:16:26;102992.02;;;16.59;24.80
55474;BME280;65220;52.214;0.116;2024-01-10T07:18:51;102988.13;;;16.71;24.65
55474;BME280;65220;52.214;0.116;2024-01-10T07:21:17;102993.74;;;16.69;24.76
55474;BME280;65220;52.214;0.116;2024-01-10T07:23:42;102992.67;;;16.09;24.94
55474;BME280;65220;52.214;0.116;2024-01-10T07:26:07;102994.69;;;16.92;24.67
55474;BME280;65220;52.214;0.116;2024-01-10T07:28:32;102995.94;;;16.76;24.62
55474;BME280;65220;52.214;0.116;2024-01-10T07:30:57;103004.76;;;16.41;24.70
55474;BME280;65220;52.214;0.116;2024-01-10T07:33:23;103005.16;;;16.37;24.80
55474;BME280;65220;52.214;0.116;2024-01-10T07:35:48;103003.82;;;16.86;24.61
55474;BME280;65220;52.214;0.116;2024-01-10T07:38:13;103009.23;;;16.43;24.72
55474;BME280;65220;52.214;0.116;2024-01-10T07:40:38;103009.63;;;16.59;24.53
55474;BME280;65220;52.214;0.116;2024-01-10T07:43:04;103009.59;;;16.54;24.64
55474;BME280;65220;52.214;0.116;2024-01-10T07:45:29;103011.65;;;16.69;24.56
55474;BME280;65220;52.214;0.116;2024-01-10T07:47:54;103011.14;;;16.64;24.59
55474;BME280;65220;52.214;0.116;2024-01-10T07:50:19;103011.84;;;16.60;24.64
55474;BME280;65220;52.214;0.116;2024-01-10T07:52:44;103011.92;;;16.94;24.42
55474;BME280;65220;52.214;0.116;2024-01-10T07:55:09;103018.29;;;16.51;24.49
55474;BME280;65220;52.214;0.116;2024-01-10T07:57:35;103014.58;;;16.82;24.37
55474;BME280;65220;52.214;0.116;2024-01-10T08:00:00;103018.12;;;16.78;24.50
55474;BME280;65220;52.214;0.116;2024-01-10T08:02:25;103017.37;;;16.82;24.41
55474;BME280;65220;52.214;0.116;2024-01-10T08:04:50;103017.46;;;16.91;24.35
55474;BME280;65220;52.214;0.116;2024-01-10T08:07:15;103015.54;;;16.96;24.25
55474;BME280;65220;52.214;0.116;2024-01-10T08:09:40;103019.78;;;16.66;24.52
55474;BME280;65220;52.214;0.116;2024-01-10T08:12:06;103016.80;;;16.91;24.38
55474;BME280;65220;52.214;0.116;2024-01-10T08:14:30;103016.80;;;16.86;24.42
55474;BME280;65220;52.214;0.116;2024-01-10T08:16:56;103016.95;;;16.99;24.33
55474;BME280;65220;52.214;0.116;2024-01-10T08:19:21;103015.56;;;16.48;24.53
55474;BME280;65220;52.214;0.116;2024-01-10T08:21:46;103011.98;;;16.95;24.36
55474;BME280;65220;52.214;0.116;2024-01-10T08:24:11;103007.70;;;16.87;24.29
55474;BME280;65220;52.214;0.116;2024-01-10T08:26:36;103011.63;;;16.39;24.39
55474;BME280;65220;52.214;0.116;2024-01-10T08:29:01;103005.95;;;16.85;24.30
55474;BME280;65220;52.214;0.116;2024-01-10T08:31:27;103003.67;;;16.60;24.21
55474;BME280;65220;52.214;0.116;2024-01-10T08:33:52;103006.42;;;16.85;24.18
55474;BME280;65220;52.214;0.116;2024-01-10T08:36:17;103007.88;;;16.91;24.11
55474;BME280;65220;52.214;0.116;2024-01-10T08:38:42;103006.88;;;16.67;24.11
55474;BME280;65220;52.214;0.116;2024-01-10T08:41:08;103012.01;;;16.13;24.47
55474;BME280;65220;52.214;0.116;2024-01-10T08:43:33;103015.23;;;16.67;24.39
55474;BME280;65220;52.214;0.116;2024-01-10T08:45:58;103013.14;;;16.09;24.72
55474;BME280;65220;52.214;0.116;2024-01-10T08:48:23;103011.37;;;16.67;24.62
55474;BME280;65220;52.214;0.116;2024-01-10T08:50:48;103014.00;;;16.53;24.61
55474;BME280;65220;52.214;0.116;2024-01-10T08:53:13;103009.40;;;16.24;24.58
55474;BME280;65220;52.214;0.116;2024-01-10T08:55:39;103008.22;;;15.86;24.78
55474;BME280;65220;52.214;0.116;2024-01-10T08:58:04;103008.07;;;16.87;24.43
55474;BME280;65220;52.214;0.116;2024-01-10T09:00:29;103009.67;;;16.72;24.37
55474;BME280;65220;52.214;0.116;2024-01-10T09:02:55;103005.15;;;16.61;24.41
55474;BME280;65220;52.214;0.116;2024-01-10T09:05:19;103007.18;;;16.50;24.47
55474;BME280;65220;52.214;0.116;2024-01-10T09:07:44;103008.91;;;16.54;24.38
55474;BME280;65220;52.214;0.116;2024-01-10T09:10:10;103009.28;;;15.93;24.53
55474;BME280;65220;52.214;0.116;2024-01-10T09:12:35;103012.11;;;16.15;24.50
55474;BME280;65220;52.214;0.116;2024-01-10T09:15:00;103011.21;;;15.86;24.56
55474;BME280;65220;52.214;0.116;2024-01-10T09:17:25;103012.34;;;16.13;24.51
55474;BME280;65220;52.214;0.116;2024-01-10T09:19:50;103008.18;;;15.79;24.50
55474;BME280;65220;52.214;0.116;2024-01-10T09:22:16;103009.17;;;16.37;24.35
55474;BME280;65220;52.214;0.116;2024-01-10T09:24:41;103007.15;;;16.33;24.44
55474;BME280;65220;52.214;0.116;2024-01-10T09:27:06;103007.96;;;16.30;24.31
55474;BME280;65220;52.214;0.116;2024-01-10T09:29:31;103005.71;;;16.26;24.40
55474;BME280;65220;52.214;0.116;2024-01-10T09:31:56;103009.10;;;16.39;24.36
55474;BME280;65220;52.214;0.116;2024-01-10T09:34:22;103012.84;;;16.46;24.47
55474;BME280;65220;52.214;0.116;2024-01-10T09:36:47;103015.27;;;16.32;24.47
55474;BME280;65220;52.214;0.116;2024-01-10T09:39:12;103018.07;;;16.51;24.39
55474;BME280;65220;52.214;0.116;2024-01-10T09:41:45;103012.14;;;16.94;24.26
55474;BME280;65220;52.214;0.116;2024-01-10T09:44:03;103018.68;;;16.41;24.38
55474;BME280;65220;52.214;0.116;2024-01-10T09:46:28;103015.67;;;16.10;24.50
55474;BME280;65220;52.214;0.116;2024-01-10T09:48:52;103016.67;;;16.57;24.32
55474;BME280;65220;52.214;0.116;2024-01-10T09:51:18;103016.79;;;15.49;24.83
55474;BME280;65220;52.214;0.116;2024-01-10T09:53:44;103016.58;;;16.37;24.46
55474;BME280;65220;52.214;0.116;2024-01-10T09:56:08;103013.90;;;16.31;24.54
55474;BME280;65220;52.214;0.116;2024-01-10T09:58:33;103013.94;;;16.19;24.53
55474;BME280;65220;52.214;0.116;2024-01-10T10:00:59;103012.60;;;16.69;24.43
55474;BME280;65220;52.214;0.116;2024-01-10T10:03:24;103008.59;;;16.02;24.60
55474;BME280;65220;52.214;0.116;2024-01-10T10:05:49;103011.76;;;16.24;24.51
55474;BME280;65220;52.214;0.116;2024-01-10T10:08:15;103009.14;;;16.42;24.47
55474;BME280;65220;52.214;0.116;2024-01-10T10:10:39;103007.41;;;15.85;24.74
55474;BME280;65220;52.214;0.116;2024-01-10T10:13:04;103006.45;;;15.82;24.77
55474;BME280;65220;52.214;0.116;2024-01-10T10:15:30;103004.28;;;16.01;24.65
55474;BME280;65220;52.214;0.116;2024-01-10T10:17:55;103007.57;;;16.26;24.58
55474;BME280;65220;52.214;0.116;2024-01-10T10:20:21;103006.99;;;16.19;24.64
55474;BME280;65220;52.214;0.116;2024-01-10T10:22:59;103001.19;;;16.02;24.65
55474;BME280;65220;52.214;0.116;2024-01-10T10:25:10;103001.92;;;15.96;24.68
55474;BME280;65220;52.214;0.116;2024-01-10T10:27:36;102998.75;;;15.88;24.66
55474;BME280;65220;52.214;0.116;2024-01-10T10:30:01;102996.01;;;16.20;24.55
55474;BME280;65220;52.214;0.116;2024-01-10T10:32:26;102996.29;;;15.58;24.82
55474;BME280;65220;52.214;0.116;2024-01-10T10:34:51;102988.51;;;16.03;24.70
55474;BME280;65220;52.214;0.116;2024-01-10T10:37:16;102986.75;;;16.12;24.89
55474;BME280;65220;52.214;0.116;2024-01-10T10:39:41;102990.63;;;15.65;24.82
55474;BME280;65220;52.214;0.116;2024-01-10T10:42:07;102987.89;;;15.93;24.85
55474;BME280;65220;52.214;0.116;2024-01-10T10:44:36;102992.47;;;16.16;24.64
55474;BME280;65220;52.214;0.116;2024-01-10T10:47:01;102994.57;;;15.97;24.78
55474;BME280;65220;52.214;0.116;2024-01-10T10:49:28;102990.18;;;15.75;24.83
55474;BME280;65220;52.214;0.116;2024-01-10T10:51:47;102993.07;;;15.55;24.82
55474;BME280;65220;52.214;0.116;2024-01-10T10:54:14;102994.15;;;15.82;24.80
55474;BME280;65220;52.214;0.116;2024-01-10T10:56:38;102992.08;;;15.21;25.03
55474;BME280;65220;52.214;0.116;2024-01-10T10:59:03;102996.00;;;16.03;24.81
55474;BME280;65220;52.214;0.116;2024-01-10T11:01:29;102995.35;;;15.16;25.15
55474;BME280;65220;52.214;0.116;2024-01-10T11:03:54;102991.24;;;16.30;24.78
55474;BME280;65220;52.214;0.116;2024-01-10T11:06:19;102988.46;;;16.39;24.69
55474;BME280;65220;52.214;0.116;2024-01-10T11:08:47;102993.15;;;16.06;24.70
55474;BME280;65220;52.214;0.116;2024-01-10T11:11:22;102994.20;;;15.57;24.98
55474;BME280;65220;52.214;0.116;2024-01-10T11:13:53;102990.84;;;16.43;24.57
55474;BME280;65220;52.214;0.116;2024-01-10T11:16:25;102987.75;;;15.92;24.90
55474;BME280;65220;52.214;0.116;2024-01-10T11:18:50;102982.55;;;15.71;24.81
55474;BME280;65220;52.214;0.116;2024-01-10T11:21:01;102980.86;;;15.52;24.82
55474;BME280;65220;52.214;0.116;2024-01-10T11:23:33;102978.33;;;15.89;24.77
55474;BME280;65220;52.214;0.116;2024-01-10T11:25:41;102973.18;;;16.07;24.68
55474;BME280;65220;52.214;0.116;2024-01-10T11:28:06;102977.78;;;15.53;24.79
55474;BME280;65220;52.214;0.116;2024-01-10T11:30:34;102975.73;;;15.92;24.67
55474;BME280;65220;52.214;0.116;2024-01-10T11:32:56;102972.63;;;15.68;24.87
55474;BME280;65220;52.214;0.116;2024-01-10T11:35:21;102972.25;;;15.89;24.76
55474;BME280;65220;52.214;0.116;2024-01-10T11:37:47;102972.67;;;15.92;24.67
55474;BME280;65220;52.214;0.116;2024-01-10T11:40:12;102973.79;;;16.17;24.65
55474;BME280;65220;52.214;0.116;2024-01-10T11:42:45;102976.30;;;15.71;24.84
55474;BME280;65220;52.214;0.116;2024-01-10T11:45:02;102978.06;;;16.02;24.77
55474;BME280;65220;52.214;0.116;2024-01-10T11:47:27;102978.59;;;15.94;24.82
55474;BME280;65220;52.214;0.116;2024-01-10T11:49:55;102973.56;;;15.88;24.81
55474;BME280;65220;52.214;0.116;2024-01-10T11:52:18;102965.26;;;15.75;24.78
55474;BME280;65220;52.214;0.116;2024-01-10T11:54:44;102960.30;;;15.13;25.04
55474;BME280;65220;52.214;0.116;2024-01-10T11:57:11;102955.43;;;15.49;24.93
55474;BME280;65220;52.214;0.116;2024-01-10T11:59:34;102956.61;;;15.67;24.79
55474;BME280;65220;52.214;0.116;2024-01-10T12:01:59;102951.44;;;15.73;24.88
55474;BME280;65220;52.214;0.116;2024-01-10T12:04:24;102948.21;;;15.82;24.80
55474;BME280;65220;52.214;0.116;2024-01-10T12:06:49;102942.03;;;15.88;24.78
55474;BME280;65220;52.214;0.116;2024-01-10T12:09:14;102943.25;;;16.02;24.84
55474;BME280;65220;52.214;0.116;2024-01-10T12:11:40;102942.24;;;15.68;25.08
55474;BME280;65220;52.214;0.116;2024-01-10T12:14:05;102939.14;;;15.79;24.83
55474;BME280;65220;52.214;0.116;2024-01-10T12:16:32;102933.56;;;15.10;25.34
55474;BME280;65220;52.214;0.116;2024-01-10T12:18:55;102931.12;;;15.72;24.93
55474;BME280;65220;52.214;0.116;2024-01-10T12:21:21;102927.65;;;15.97;25.01
55474;BME280;65220;52.214;0.116;2024-01-10T12:23:46;102925.52;;;15.80;25.19
55474;BME280;65220;52.214;0.116;2024-01-10T12:26:11;102925.72;;;15.51;25.21
55474;BME280;65220;52.214;0.116;2024-01-10T12:28:37;102921.28;;;16.20;25.07
55474;BME280;65220;52.214;0.116;2024-01-10T12:31:01;102918.44;;;15.66;25.18
55474;BME280;65220;52.214;0.116;2024-01-10T12:33:27;102922.41;;;15.62;25.11
55474;BME280;65220;52.214;0.116;2024-01-10T12:36:08;102920.45;;;15.80;25.09
55474;BME280;65220;52.214;0.116;2024-01-10T12:38:17;102918.07;;;15.68;25.21